Sweeney Granite Mountains, California Weather observations

Data are for 10 minute period ending at time listed.
 Day   Time   Solar   Ave.   Ave.  Ave.  Vector  Max.   Baro.   Total    
  of    of     Rad.   Air    Rel.  Wind   Wind   Wind  Press.  Precip.   
Year   Day            Temp.  Hum.  Speed  Dir.   Gust                    
2015   (PST)  Kw/m2    F      %     mph   deg.    mph    mb.     in.     
-------------------------------------------------------------------------
  24   11:10   0.62   54.0    24   13.1   307    20.8   875.8    0.00 
  24   11:20   0.63   54.4    23   12.6   301    18.6   875.7    0.00 
  24   11:30   0.64   54.8    23   12.6   302    20.7   875.7    0.00 
  24   11:40   0.64   54.7    23   15.0   314    24.2   875.6    0.00 
  24   11:50   0.64   53.1    24   17.2   314    28.0   875.4    0.00 
  24   12:00   0.65   53.2    25   16.2   320    27.0   875.2    0.00 
  24   12:10   0.65   53.1    25   18.1   309    26.5   874.9    0.00 
  24   12:20   0.64   52.8    25   18.7   308    33.3   874.8    0.00 
  24   12:30   0.64   52.9    25   22.6   303    35.1   874.6    0.00 
  24   12:40   0.64   53.0    24   20.0   305    31.2   874.6    0.00 
  24   12:50   0.63   53.4    24   22.8   303    32.7   874.4    0.00 
  24   13:00   0.62   53.7    24   18.0   310    27.7   874.5    0.00 
  24   13:10   0.60   53.8    24   17.5   318    32.7   874.5    0.00 
  24   13:20   0.60   54.0    23   18.6   314    27.8   874.4    0.00 
  24   13:30   0.59   54.1    23   16.2   321    26.6   874.3    0.00 
  24   13:40   0.57   54.6    22   18.4   312    30.5   874.0    0.00 
  24   13:50   0.55   55.5    21   16.4   312    23.9   873.9    0.00 
  24   14:00   0.53   55.7    21   16.7   312    25.8   873.9    0.00 
  24   14:10   0.51   55.7    21   19.5   309    27.5   873.9    0.00 
  24   14:20   0.49   55.7    21   14.2   321    26.1   874.0    0.00 
  24   14:30   0.47   56.3    20   13.5   318    22.4   873.9    0.00 
  24   14:40   0.44   56.8    20   13.9   313    23.6   873.8    0.00 
  24   14:50   0.41   56.6    20   14.9   314    26.0   873.7    0.00 
  24   15:00   0.39   56.6    20   12.9   317    23.8   873.7    0.00 
  24   15:10   0.36   56.3    21   13.0   315    24.5   873.8    0.00 
  24   15:20   0.33   56.1    21   13.8   302    24.3   873.7    0.00 
  24   15:30   0.30   56.0    20   17.7   305    27.2   873.6    0.00 
  24   15:40   0.27   55.7    21   17.0   310    26.2   873.5    0.00 
  24   15:50   0.10   55.5    21   16.9   310    25.2   873.4    0.00 
  24   16:00   0.01   55.2    21   15.8   314    24.5   873.4    0.00 
  24   16:10   0.01   55.3    20   12.9   304    20.0   873.3    0.00 
  24   16:20   0.01   55.6    20   10.8   305    16.8   873.3    0.00 
  24   16:30   0.01   55.2    20   13.8   308    21.3   873.3    0.00 
  24   16:40   0.01   54.7    20   12.3   304    20.5   873.2    0.00 
  24   16:50   0.01   54.5    20   13.9   298    20.9   873.2    0.00 
  24   17:00   0.00   53.8    20   13.4   293    19.4   873.3    0.00 
  24   17:10   0.00   53.5    21   11.6   298    17.5   873.3    0.00 
  24   17:20   0.00   53.7    20   11.3   303    20.3   873.4    0.00 
  24   17:30   0.00   54.1    20   10.3   309    18.8   873.4    0.00 
  24   17:40   0.00   54.1    20    9.8   299    17.5   873.6    0.00 
  24   17:50   0.00   53.4    21   12.4   289    18.0   873.7    0.00 
  24   18:00   0.00   53.3    21   11.1   298    16.4   873.8    0.00 
  24   18:10   0.00   53.6    20   12.2   305    17.5   873.9    0.00 
  24   18:20   0.00   53.5    20   12.8   300    18.3   873.9    0.00 
  24   18:30   0.00   53.6    20   12.5   300    19.1   874.1    0.00 
  24   18:40   0.00   53.3    20   11.0   308    15.8   874.2    0.00 
  24   18:50   0.00   53.3    21   11.8   306    16.4   874.2    0.00 
  24   19:00   0.00   53.4    20   12.1   309    18.4   874.3    0.00 
  24   19:10   0.00   53.6    20   11.0   311    17.5   874.4    0.00 
  24   19:20   0.00   53.7    20   11.2   310    16.1   874.5    0.00 
  24   19:30   0.00   54.4    18    8.3   317    12.5   874.6    0.00 
  24   19:40   0.00   54.3    18    8.3   307    12.2   874.6    0.00 
  24   19:50   0.00   53.8    18    7.9   301    11.2   874.7    0.00 
  24   20:00   0.00   53.9    18    9.8   302    15.9   874.7    0.00 
  24   20:10   0.00   55.0    17   12.3   310    19.2   874.7    0.00 
  24   20:20   0.00   55.2    16   12.7   307    21.3   874.7    0.00 
  24   20:30   0.00   55.1    17   10.0   314    15.8   874.8    0.00 
  24   20:40   0.00   54.7    18   11.8   306    19.4   874.7    0.00 
  24   20:50   0.00   54.5    18   13.1   305    18.1   874.7    0.00 
  24   21:00   0.00   54.6    18   13.8   304    20.0   874.8    0.00 
  24   21:10   0.00   55.1    17   12.9   310    19.7   874.8    0.00 
  24   21:20   0.00   55.0    17   11.5   315    20.1   874.8    0.00 
  24   21:30   0.00   55.1    17   10.0   323    19.4   874.9    0.00 
  24   21:40   0.00   55.1    16   10.8   309    18.4   875.0    0.00 
  24   21:50   0.00   55.5    16   11.2   317    18.6   875.0    0.00 
  24   22:00   0.00   55.2    16   12.1   311    19.3   874.9    0.00 
  24   22:10   0.00   55.5    15   13.0   306    19.6   874.9    0.00 
  24   22:20   0.00   55.7    15    9.3   316    17.1   874.9    0.00 
  24   22:30   0.00   55.8    15    9.7   312    19.8   875.0    0.00 
  24   22:40   0.00   55.6    15   10.8   314    17.6   875.0    0.00 
  24   22:50   0.00   55.0    16   13.0   304    18.7   875.0    0.00 
  24   23:00   0.00   54.9    17   12.9   312    18.1   875.0    0.00 
  24   23:10   0.00   55.1    18   14.3   312    19.4   874.9    0.00 
  24   23:20   0.00   54.8    19   12.9   309    20.4   874.8    0.00 
  24   23:30   0.00   54.9    19   14.6   315    25.2   874.8    0.00 
  24   23:40   0.00   54.8    20   14.3   311    22.1   874.8    0.00 
  24   23:50   0.00   54.7    19   12.5   312    19.8   874.8    0.00 
  25    0:00   0.00   54.5    20   11.0   311    18.1   874.8    0.00 
  25    0:10   0.00   54.7    20   11.3   308    17.5   874.8    0.00 
  25    0:20   0.00   54.7    20   12.3   310    16.4   874.8    0.00 
  25    0:30   0.00   54.7    21   11.1   317    17.0   874.8    0.00 
  25    0:40   0.00   54.9    20   11.3   316    18.3   874.7    0.00 
  25    0:50   0.00   54.7    21   12.6   315    18.7   874.6    0.00 
  25    1:00   0.00   54.9    21   12.6   314    20.9   874.5    0.00 
  25    1:10   0.00   55.3    21   14.6   312    23.7   874.4    0.00 
  25    1:20   0.00   55.2    21   14.4   311    23.0   874.3    0.00 
  25    1:30   0.00   55.1    21   14.6   312    21.8   874.3    0.00 
  25    1:40   0.00   54.7    23   16.1   313    24.3   874.3    0.00 
  25    1:50   0.00   54.0    24   15.7   313    22.9   874.3    0.00 
  25    2:00   0.00   53.9    24   16.9   311    25.5   874.2    0.00 
  25    2:10   0.00   53.4    24   14.6   309    20.9   874.3    0.00 
  25    2:20   0.00   52.9    25   15.9   310    20.0   874.2    0.00 
  25    2:30   0.00   53.3    25   14.8   316    21.2   874.2    0.00 
  25    2:40   0.00   53.8    25   13.4   316    18.2   874.1    0.00 
  25    2:50   0.00   54.1    24   13.8   314    18.8   874.1    0.00 
  25    3:00   0.00   54.2    24   14.4   315    20.1   874.0    0.00 
  25    3:10   0.00   54.0    25   15.1   313    21.1   874.0    0.00 
  25    3:20   0.00   54.0    26   14.6   310    19.4   873.8    0.00 
  25    3:30   0.00   54.2    25   13.2   314    18.0   873.8    0.00 
  25    3:40   0.00   54.8    24   12.5   315    16.3   873.7    0.00 
  25    3:50   0.00   54.7    24   14.1   314    20.5   873.6    0.00 
  25    4:00   0.00   54.6    25   12.2   314    17.7   873.5    0.00 
  25    4:10   0.00   55.0    24   12.4   312    16.0   873.5    0.00 
  25    4:20   0.00   54.9    24   12.2   314    16.5   873.5    0.00 
  25    4:30   0.00   54.1    25   10.4   309    17.8   873.6    0.00 
  25    4:40   0.00   53.9    25    9.3   308    14.0   873.6    0.00 
  25    4:50   0.00   54.3    24    7.9   310    11.8   873.5    0.00 
  25    5:00   0.00   54.2    24    5.2   292     8.8   873.6    0.00 
  25    5:10   0.00   53.6    24    3.1   337     6.8   873.7    0.00 
  25    5:20   0.00   53.1    24    3.5   322     6.0   873.7    0.00 
  25    5:30   0.00   52.0    25    2.8   335     5.4   873.7    0.00 
  25    5:40   0.00   51.8    25    1.7   357     3.3   873.8    0.00 
  25    5:50   0.00   52.4    26    1.3   249     3.3   873.8    0.00 
  25    6:00   0.00   51.0    26    1.4     8     3.2   874.0    0.00 
  25    6:10   0.00   49.5    27    0.6   335     2.1   874.0    0.00 
  25    6:20   0.00   47.8    28    0.6   251     2.8   874.1    0.00 
  25    6:30   0.00   47.9    28    1.1    67     2.7   874.2    0.00 
  25    6:40   0.00   46.1    30    1.9   269     3.7   874.4    0.00 
  25    6:50   0.00   46.3    30    2.2   294     5.1   874.4    0.00 
  25    7:00   0.00   45.9    31    2.1   306     4.2   874.5    0.00 
  25    7:10   0.02   45.3    31    1.8   304     2.6   874.5    0.00 
  25    7:20   0.04   45.7    32    2.4   288     3.7   874.5    0.00 
  25    7:30   0.08   49.5    28    1.3   282     3.9   874.5    0.00 
  25    7:40   0.10   53.5    26    1.2    78     3.2   874.6    0.00 
  25    7:50   0.14   55.9    24    2.8   267     4.7   874.6    0.00 
  25    8:00   0.17   60.2    20    2.2   168     6.1   874.6    0.00 
  25    8:10   0.20   61.2    21    4.2   151     8.8   874.8    0.00 
  25    8:20   0.23   59.2    24    2.6   166     7.3   874.8    0.00 
  25    8:30   0.27   61.0    22    2.1   182     4.5   874.7    0.00 
  25    8:40   0.30   61.0    22    2.7   235     4.4   874.6    0.00 
  25    8:50   0.33   61.4    21    3.2   210     8.6   874.6    0.00 
  25    9:00   0.36   61.4    22    4.6   165    11.0   874.6    0.00 
  25    9:10   0.39   61.1    22    4.0   206     8.8   874.7    0.00 
  25    9:20   0.41   62.7    20    3.9   175     9.1   874.8    0.00 
  25    9:30   0.44   64.3    19    2.3   166     5.8   874.7    0.00 
  25    9:40   0.47   64.0    18    4.3    68     9.0   874.7    0.00 
  25    9:50   0.49   64.3    18    4.2   118    10.2   874.8    0.00 
  25   10:00   0.51   63.9    19    4.2   123     9.6   874.9    0.00 
  25   10:10   0.54   64.3    18    4.4    50    10.7   874.9    0.00 
  25   10:20   0.55   64.4    19    4.7    52    13.0   875.0    0.00 
  25   10:30   0.57   64.2    20    3.3   125     8.6   875.0    0.00 
  25   10:40   0.59   64.8    19    4.4    15    10.3   875.0    0.00 
  25   10:50   0.60   63.9    20    5.7    33    10.7   875.0    0.00 
  25   11:00   0.61   64.5    19    5.6    31    17.1   875.0    0.00 

Return to Sweeney Granite Mountains graphs page.


Western Regional Climate Center,wrcc@dri.edu